sensor_id;sensor_type;location;lat;lon;timestamp;P1;durP1;ratioP1;P2;durP2;ratioP2
9860;SDS011;4969;52.304;4.968;2023-04-02T00:01:24;6.50;;;5.90;;
9860;SDS011;4969;52.304;4.968;2023-04-02T00:04:13;8.17;;;6.97;;
9860;SDS011;4969;52.304;4.968;2023-04-02T00:06:47;7.60;;;6.90;;
9860;SDS011;4969;52.304;4.968;2023-04-02T00:09:31;8.10;;;7.17;;
9860;SDS011;4969;52.304;4.968;2023-04-02T00:12:10;8.87;;;6.87;;
9860;SDS011;4969;52.304;4.968;2023-04-02T00:14:42;8.23;;;7.30;;
9860;SDS011;4969;52.304;4.968;2023-04-02T00:17:13;6.97;;;5.90;;
9860;SDS011;4969;52.304;4.968;2023-04-02T00:19:42;9.57;;;6.80;;
9860;SDS011;4969;52.304;4.968;2023-04-02T00:22:12;9.37;;;7.30;;
9860;SDS011;4969;52.304;4.968;2023-04-02T00:24:42;7.40;;;6.70;;
9860;SDS011;4969;52.304;4.968;2023-04-02T00:27:09;8.87;;;7.27;;
9860;SDS011;4969;52.304;4.968;2023-04-02T00:29:43;8.03;;;7.17;;
9860;SDS011;4969;52.304;4.968;2023-04-02T00:32:12;7.13;;;6.43;;
9860;SDS011;4969;52.304;4.968;2023-04-02T00:34:45;6.80;;;6.20;;
9860;SDS011;4969;52.304;4.968;2023-04-02T00:37:12;8.07;;;7.27;;
9860;SDS011;4969;52.304;4.968;2023-04-02T00:39:47;7.90;;;7.00;;
9860;SDS011;4969;52.304;4.968;2023-04-02T00:42:15;7.30;;;6.60;;
9860;SDS011;4969;52.304;4.968;2023-04-02T00:44:42;6.57;;;5.97;;
9860;SDS011;4969;52.304;4.968;2023-04-02T00:47:11;6.97;;;6.27;;
9860;SDS011;4969;52.304;4.968;2023-04-02T00:49:42;7.83;;;6.70;;
9860;SDS011;4969;52.304;4.968;2023-04-02T00:52:11;6.70;;;6.10;;
9860;SDS011;4969;52.304;4.968;2023-04-02T00:54:41;5.93;;;5.50;;
9860;SDS011;4969;52.304;4.968;2023-04-02T00:57:14;6.57;;;5.87;;
9860;SDS011;4969;52.304;4.968;2023-04-02T00:59:47;6.13;;;5.63;;
9860;SDS011;4969;52.304;4.968;2023-04-02T01:02:20;6.17;;;5.53;;
9860;SDS011;4969;52.304;4.968;2023-04-02T01:04:52;5.70;;;5.10;;
9860;SDS011;4969;52.304;4.968;2023-04-02T01:07:22;6.17;;;5.60;;
9860;SDS011;4969;52.304;4.968;2023-04-02T01:10:01;6.17;;;5.67;;
9860;SDS011;4969;52.304;4.968;2023-04-02T01:12:48;5.63;;;5.13;;
9860;SDS011;4969;52.304;4.968;2023-04-02T01:15:21;5.83;;;5.23;;
9860;SDS011;4969;52.304;4.968;2023-04-02T01:18:00;6.83;;;5.53;;
9860;SDS011;4969;52.304;4.968;2023-04-02T01:20:42;6.27;;;5.67;;
9860;SDS011;4969;52.304;4.968;2023-04-02T01:23:37;5.70;;;5.30;;
9860;SDS011;4969;52.304;4.968;2023-04-02T01:26:14;5.97;;;5.37;;
9860;SDS011;4969;52.304;4.968;2023-04-02T01:28:50;6.63;;;5.90;;
9860;SDS011;4969;52.304;4.968;2023-04-02T01:31:26;6.33;;;5.27;;
9860;SDS011;4969;52.304;4.968;2023-04-02T01:33:54;5.50;;;5.07;;
9860;SDS011;4969;52.304;4.968;2023-04-02T01:36:22;6.20;;;4.80;;
9860;SDS011;4969;52.304;4.968;2023-04-02T01:38:57;5.73;;;5.13;;
9860;SDS011;4969;52.304;4.968;2023-04-02T01:41:32;4.83;;;4.43;;
9860;SDS011;4969;52.304;4.968;2023-04-02T01:44:06;5.73;;;5.00;;
9860;SDS011;4969;52.304;4.968;2023-04-02T01:46:37;5.73;;;5.20;;
9860;SDS011;4969;52.304;4.968;2023-04-02T01:49:09;5.50;;;5.00;;
9860;SDS011;4969;52.304;4.968;2023-04-02T01:51:39;5.37;;;4.97;;
9860;SDS011;4969;52.304;4.968;2023-04-02T01:54:07;5.70;;;5.20;;
9860;SDS011;4969;52.304;4.968;2023-04-02T01:56:35;5.67;;;5.17;;
9860;SDS011;4969;52.304;4.968;2023-04-02T01:59:02;5.70;;;5.23;;
9860;SDS011;4969;52.304;4.968;2023-04-02T02:01:32;6.37;;;5.13;;
9860;SDS011;4969;52.304;4.968;2023-04-02T02:04:01;5.67;;;4.83;;
9860;SDS011;4969;52.304;4.968;2023-04-02T02:06:28;6.47;;;5.17;;
9860;SDS011;4969;52.304;4.968;2023-04-02T02:08:55;6.03;;;5.40;;
9860;SDS011;4969;52.304;4.968;2023-04-02T02:11:28;5.40;;;4.90;;
9860;SDS011;4969;52.304;4.968;2023-04-02T02:13:58;7.17;;;5.50;;
9860;SDS011;4969;52.304;4.968;2023-04-02T02:16:26;6.73;;;5.27;;
9860;SDS011;4969;52.304;4.968;2023-04-02T02:18:56;8.07;;;5.00;;
9860;SDS011;4969;52.304;4.968;2023-04-02T02:21:28;6.83;;;5.50;;
9860;SDS011;4969;52.304;4.968;2023-04-02T02:24:03;6.17;;;5.57;;
9860;SDS011;4969;52.304;4.968;2023-04-02T02:26:32;6.30;;;5.70;;
9860;SDS011;4969;52.304;4.968;2023-04-02T02:29:01;5.37;;;4.50;;
9860;SDS011;4969;52.304;4.968;2023-04-02T02:31:31;5.87;;;5.27;;
9860;SDS011;4969;52.304;4.968;2023-04-02T02:34:01;5.20;;;4.70;;
9860;SDS011;4969;52.304;4.968;2023-04-02T02:36:32;5.53;;;5.03;;
9860;SDS011;4969;52.304;4.968;2023-04-02T02:39:04;5.70;;;4.87;;
9860;SDS011;4969;52.304;4.968;2023-04-02T02:41:38;5.20;;;4.80;;
9860;SDS011;4969;52.304;4.968;2023-04-02T02:44:10;5.40;;;4.67;;
9860;SDS011;4969;52.304;4.968;2023-04-02T02:46:41;4.87;;;4.47;;
9860;SDS011;4969;52.304;4.968;2023-04-02T02:49:14;6.30;;;5.50;;
9860;SDS011;4969;52.304;4.968;2023-04-02T02:51:44;4.83;;;4.40;;
9860;SDS011;4969;52.304;4.968;2023-04-02T02:54:13;5.30;;;4.80;;
9860;SDS011;4969;52.304;4.968;2023-04-02T02:56:43;5.77;;;4.43;;
9860;SDS011;4969;52.304;4.968;2023-04-02T02:59:12;5.17;;;4.67;;
9860;SDS011;4969;52.304;4.968;2023-04-02T03:01:41;8.77;;;5.00;;
9860;SDS011;4969;52.304;4.968;2023-04-02T03:04:09;5.60;;;5.10;;
9860;SDS011;4969;52.304;4.968;2023-04-02T03:06:37;4.73;;;4.33;;
9860;SDS011;4969;52.304;4.968;2023-04-02T03:09:08;4.30;;;3.87;;
9860;SDS011;4969;52.304;4.968;2023-04-02T03:11:43;5.20;;;4.70;;
9860;SDS011;4969;52.304;4.968;2023-04-02T03:14:17;4.73;;;4.33;;
9860;SDS011;4969;52.304;4.968;2023-04-02T03:16:49;5.77;;;5.33;;
9860;SDS011;4969;52.304;4.968;2023-04-02T03:19:23;5.90;;;5.40;;
9860;SDS011;4969;52.304;4.968;2023-04-02T03:21:56;5.63;;;5.13;;
9860;SDS011;4969;52.304;4.968;2023-04-02T03:24:28;5.67;;;5.17;;
9860;SDS011;4969;52.304;4.968;2023-04-02T03:27:00;5.00;;;4.60;;
9860;SDS011;4969;52.304;4.968;2023-04-02T03:29:32;5.20;;;4.80;;
9860;SDS011;4969;52.304;4.968;2023-04-02T03:32:02;5.07;;;4.70;;
9860;SDS011;4969;52.304;4.968;2023-04-02T03:34:32;5.17;;;4.67;;
9860;SDS011;4969;52.304;4.968;2023-04-02T03:37:04;5.20;;;4.03;;
9860;SDS011;4969;52.304;4.968;2023-04-02T03:39:36;4.87;;;4.47;;
9860;SDS011;4969;52.304;4.968;2023-04-02T03:42:08;4.80;;;4.40;;
9860;SDS011;4969;52.304;4.968;2023-04-02T03:44:44;5.47;;;4.97;;
9860;SDS011;4969;52.304;4.968;2023-04-02T03:47:15;4.87;;;4.37;;
9860;SDS011;4969;52.304;4.968;2023-04-02T03:49:48;4.70;;;4.30;;
9860;SDS011;4969;52.304;4.968;2023-04-02T03:52:23;5.47;;;5.00;;
9860;SDS011;4969;52.304;4.968;2023-04-02T03:54:52;6.07;;;4.47;;
9860;SDS011;4969;52.304;4.968;2023-04-02T03:57:23;5.07;;;4.57;;
9860;SDS011;4969;52.304;4.968;2023-04-02T03:59:56;4.80;;;4.37;;
9860;SDS011;4969;52.304;4.968;2023-04-02T04:02:33;5.37;;;4.00;;
9860;SDS011;4969;52.304;4.968;2023-04-02T04:05:05;5.20;;;4.30;;
9860;SDS011;4969;52.304;4.968;2023-04-02T04:07:45;4.30;;;4.00;;
9860;SDS011;4969;52.304;4.968;2023-04-02T04:10:15;4.50;;;4.10;;
9860;SDS011;4969;52.304;4.968;2023-04-02T04:12:45;4.90;;;4.50;;
9860;SDS011;4969;52.304;4.968;2023-04-02T04:15:14;5.07;;;3.87;;
9860;SDS011;4969;52.304;4.968;2023-04-02T04:17:47;4.47;;;3.60;;
9860;SDS011;4969;52.304;4.968;2023-04-02T04:20:20;4.37;;;4.03;;
9860;SDS011;4969;52.304;4.968;2023-04-02T04:22:53;4.70;;;4.30;;
9860;SDS011;4969;52.304;4.968;2023-04-02T04:25:23;4.20;;;3.77;;
9860;SDS011;4969;52.304;4.968;2023-04-02T04:27:58;4.90;;;3.80;;
9860;SDS011;4969;52.304;4.968;2023-04-02T04:30:35;3.93;;;3.63;;
9860;SDS011;4969;52.304;4.968;2023-04-02T04:33:10;4.83;;;4.00;;
9860;SDS011;4969;52.304;4.968;2023-04-02T04:35:43;4.17;;;3.87;;
9860;SDS011;4969;52.304;4.968;2023-04-02T04:38:15;4.23;;;3.83;;
9860;SDS011;4969;52.304;4.968;2023-04-02T04:40:53;4.93;;;4.00;;
9860;SDS011;4969;52.304;4.968;2023-04-02T04:43:23;5.13;;;3.90;;
9860;SDS011;4969;52.304;4.968;2023-04-02T04:45:56;4.43;;;4.03;;
9860;SDS011;4969;52.304;4.968;2023-04-02T04:48:28;5.63;;;4.10;;
9860;SDS011;4969;52.304;4.968;2023-04-02T04:51:02;4.40;;;4.00;;
9860;SDS011;4969;52.304;4.968;2023-04-02T04:53:33;6.37;;;4.17;;
9860;SDS011;4969;52.304;4.968;2023-04-02T04:56:11;4.00;;;3.70;;
9860;SDS011;4969;52.304;4.968;2023-04-02T04:58:41;4.60;;;3.80;;
9860;SDS011;4969;52.304;4.968;2023-04-02T05:01:11;4.83;;;4.33;;
9860;SDS011;4969;52.304;4.968;2023-04-02T05:03:43;5.03;;;3.83;;
9860;SDS011;4969;52.304;4.968;2023-04-02T05:06:16;4.40;;;4.00;;
9860;SDS011;4969;52.304;4.968;2023-04-02T05:08:48;4.43;;;4.03;;
9860;SDS011;4969;52.304;4.968;2023-04-02T05:11:20;5.17;;;3.93;;
9860;SDS011;4969;52.304;4.968;2023-04-02T05:13:52;5.20;;;4.30;;
9860;SDS011;4969;52.304;4.968;2023-04-02T05:16:22;6.33;;;3.90;;
9860;SDS011;4969;52.304;4.968;2023-04-02T05:18:54;7.63;;;4.47;;
9860;SDS011;4969;52.304;4.968;2023-04-02T05:21:27;4.57;;;3.53;;
9860;SDS011;4969;52.304;4.968;2023-04-02T05:24:06;7.37;;;3.93;;
9860;SDS011;4969;52.304;4.968;2023-04-02T05:26:51;5.97;;;3.83;;
9860;SDS011;4969;52.304;4.968;2023-04-02T05:29:23;5.27;;;3.70;;
9860;SDS011;4969;52.304;4.968;2023-04-02T05:31:54;4.10;;;3.60;;
9860;SDS011;4969;52.304;4.968;2023-04-02T05:34:28;4.73;;;3.30;;
9860;SDS011;4969;52.304;4.968;2023-04-02T05:36:58;4.53;;;2.90;;
9860;SDS011;4969;52.304;4.968;2023-04-02T05:39:27;4.63;;;3.53;;
9860;SDS011;4969;52.304;4.968;2023-04-02T05:41:56;5.03;;;3.63;;
9860;SDS011;4969;52.304;4.968;2023-04-02T05:44:25;3.20;;;2.90;;
9860;SDS011;4969;52.304;4.968;2023-04-02T05:46:55;5.93;;;3.53;;
9860;SDS011;4969;52.304;4.968;2023-04-02T05:49:24;4.93;;;3.50;;
9860;SDS011;4969;52.304;4.968;2023-04-02T05:51:57;4.17;;;3.40;;
9860;SDS011;4969;52.304;4.968;2023-04-02T05:54:30;4.37;;;3.50;;
9860;SDS011;4969;52.304;4.968;2023-04-02T05:57:02;3.83;;;3.17;;
9860;SDS011;4969;52.304;4.968;2023-04-02T05:59:33;4.80;;;3.50;;
9860;SDS011;4969;52.304;4.968;2023-04-02T06:02:05;5.73;;;3.03;;
9860;SDS011;4969;52.304;4.968;2023-04-02T06:04:43;4.40;;;3.43;;
9860;SDS011;4969;52.304;4.968;2023-04-02T06:07:16;4.67;;;3.20;;
9860;SDS011;4969;52.304;4.968;2023-04-02T06:09:49;4.10;;;3.50;;
9860;SDS011;4969;52.304;4.968;2023-04-02T06:12:21;4.43;;;3.23;;
9860;SDS011;4969;52.304;4.968;2023-04-02T06:14:51;4.90;;;3.27;;
9860;SDS011;4969;52.304;4.968;2023-04-02T06:17:19;4.63;;;3.50;;
9860;SDS011;4969;52.304;4.968;2023-04-02T06:19:46;3.67;;;2.83;;
9860;SDS011;4969;52.304;4.968;2023-04-02T06:22:21;4.43;;;3.33;;
9860;SDS011;4969;52.304;4.968;2023-04-02T06:24:54;3.83;;;3.20;;
9860;SDS011;4969;52.304;4.968;2023-04-02T06:27:25;3.90;;;3.27;;
9860;SDS011;4969;52.304;4.968;2023-04-02T06:29:53;3.70;;;2.83;;
9860;SDS011;4969;52.304;4.968;2023-04-02T06:32:23;4.83;;;2.90;;
9860;SDS011;4969;52.304;4.968;2023-04-02T06:34:51;6.90;;;3.60;;
9860;SDS011;4969;52.304;4.968;2023-04-02T06:37:20;5.37;;;3.00;;
9860;SDS011;4969;52.304;4.968;2023-04-02T06:39:53;3.20;;;2.90;;
9860;SDS011;4969;52.304;4.968;2023-04-02T06:42:20;3.43;;;2.87;;
9860;SDS011;4969;52.304;4.968;2023-04-02T06:44:50;4.93;;;3.10;;
9860;SDS011;4969;52.304;4.968;2023-04-02T06:47:19;3.53;;;2.63;;
9860;SDS011;4969;52.304;4.968;2023-04-02T06:49:52;5.20;;;2.93;;
9860;SDS011;4969;52.304;4.968;2023-04-02T06:52:24;4.37;;;3.07;;
9860;SDS011;4969;52.304;4.968;2023-04-02T06:54:54;3.40;;;2.80;;
9860;SDS011;4969;52.304;4.968;2023-04-02T06:57:21;6.33;;;3.00;;
9860;SDS011;4969;52.304;4.968;2023-04-02T06:59:47;4.67;;;2.80;;
9860;SDS011;4969;52.304;4.968;2023-04-02T07:02:17;4.07;;;3.17;;
9860;SDS011;4969;52.304;4.968;2023-04-02T07:04:49;4.87;;;2.97;;
9860;SDS011;4969;52.304;4.968;2023-04-02T07:07:16;4.97;;;3.00;;
9860;SDS011;4969;52.304;4.968;2023-04-02T07:09:42;4.30;;;3.00;;
9860;SDS011;4969;52.304;4.968;2023-04-02T07:12:11;4.70;;;2.87;;
9860;SDS011;4969;52.304;4.968;2023-04-02T07:14:38;5.53;;;2.60;;
9860;SDS011;4969;52.304;4.968;2023-04-02T07:17:04;2.93;;;2.30;;
9860;SDS011;4969;52.304;4.968;2023-04-02T07:19:31;2.67;;;2.10;;
9860;SDS011;4969;52.304;4.968;2023-04-02T07:21:58;4.13;;;2.63;;
9860;SDS011;4969;52.304;4.968;2023-04-02T07:24:24;4.23;;;3.30;;
9860;SDS011;4969;52.304;4.968;2023-04-02T07:26:51;4.83;;;3.03;;
9860;SDS011;4969;52.304;4.968;2023-04-02T07:29:19;3.10;;;2.57;;
9860;SDS011;4969;52.304;4.968;2023-04-02T07:31:45;4.40;;;3.00;;
9860;SDS011;4969;52.304;4.968;2023-04-02T07:34:12;4.27;;;2.90;;
9860;SDS011;4969;52.304;4.968;2023-04-02T07:36:38;4.17;;;3.23;;
9860;SDS011;4969;52.304;4.968;2023-04-02T07:39:05;6.27;;;2.97;;
9860;SDS011;4969;52.304;4.968;2023-04-02T07:41:32;5.47;;;3.30;;
9860;SDS011;4969;52.304;4.968;2023-04-02T07:43:59;3.73;;;2.30;;
9860;SDS011;4969;52.304;4.968;2023-04-02T07:46:26;3.93;;;2.67;;
9860;SDS011;4969;52.304;4.968;2023-04-02T07:48:53;4.77;;;2.87;;
9860;SDS011;4969;52.304;4.968;2023-04-02T07:51:20;4.13;;;3.10;;
9860;SDS011;4969;52.304;4.968;2023-04-02T07:53:48;3.77;;;2.30;;
9860;SDS011;4969;52.304;4.968;2023-04-02T07:56:19;3.87;;;2.63;;
9860;SDS011;4969;52.304;4.968;2023-04-02T07:58:47;3.60;;;2.67;;
9860;SDS011;4969;52.304;4.968;2023-04-02T08:01:15;2.87;;;2.33;;
9860;SDS011;4969;52.304;4.968;2023-04-02T08:03:44;4.33;;;2.90;;
9860;SDS011;4969;52.304;4.968;2023-04-02T08:06:11;5.00;;;2.37;;
9860;SDS011;4969;52.304;4.968;2023-04-02T08:08:38;5.70;;;3.30;;
9860;SDS011;4969;52.304;4.968;2023-04-02T08:11:05;3.70;;;2.67;;
9860;SDS011;4969;52.304;4.968;2023-04-02T08:13:32;4.13;;;2.63;;
9860;SDS011;4969;52.304;4.968;2023-04-02T08:15:58;4.97;;;2.57;;
9860;SDS011;4969;52.304;4.968;2023-04-02T08:18:26;3.73;;;2.93;;
9860;SDS011;4969;52.304;4.968;2023-04-02T08:20:54;2.53;;;2.10;;
9860;SDS011;4969;52.304;4.968;2023-04-02T08:23:21;5.90;;;3.97;;
9860;SDS011;4969;52.304;4.968;2023-04-02T08:25:48;3.27;;;2.37;;
9860;SDS011;4969;52.304;4.968;2023-04-02T08:28:16;3.40;;;2.13;;
9860;SDS011;4969;52.304;4.968;2023-04-02T08:30:43;9.20;;;7.10;;
9860;SDS011;4969;52.304;4.968;2023-04-02T08:33:09;3.77;;;2.63;;
9860;SDS011;4969;52.304;4.968;2023-04-02T08:35:36;8.67;;;5.40;;
9860;SDS011;4969;52.304;4.968;2023-04-02T08:38:04;4.87;;;2.77;;
9860;SDS011;4969;52.304;4.968;2023-04-02T08:40:32;3.60;;;2.10;;
9860;SDS011;4969;52.304;4.968;2023-04-02T08:43:10;8.97;;;5.53;;
9860;SDS011;4969;52.304;4.968;2023-04-02T08:45:54;6.73;;;4.60;;
9860;SDS011;4969;52.304;4.968;2023-04-02T08:48:29;3.40;;;2.20;;
9860;SDS011;4969;52.304;4.968;2023-04-02T08:50:57;9.60;;;5.23;;
9860;SDS011;4969;52.304;4.968;2023-04-02T08:53:27;11.13;;;7.63;;
9860;SDS011;4969;52.304;4.968;2023-04-02T08:55:57;4.93;;;3.73;;
9860;SDS011;4969;52.304;4.968;2023-04-02T08:58:32;3.70;;;2.27;;
9860;SDS011;4969;52.304;4.968;2023-04-02T09:01:05;3.80;;;2.20;;
9860;SDS011;4969;52.304;4.968;2023-04-02T09:03:34;8.87;;;7.33;;
9860;SDS011;4969;52.304;4.968;2023-04-02T09:06:04;8.10;;;6.43;;
9860;SDS011;4969;52.304;4.968;2023-04-02T09:08:35;6.30;;;3.40;;
9860;SDS011;4969;52.304;4.968;2023-04-02T09:11:05;5.80;;;2.77;;
9860;SDS011;4969;52.304;4.968;2023-04-02T09:13:33;5.50;;;3.40;;
9860;SDS011;4969;52.304;4.968;2023-04-02T09:16:04;11.93;;;9.20;;
9860;SDS011;4969;52.304;4.968;2023-04-02T09:18:35;5.30;;;4.03;;
9860;SDS011;4969;52.304;4.968;2023-04-02T09:21:12;3.57;;;2.03;;
9860;SDS011;4969;52.304;4.968;2023-04-02T09:24:00;6.27;;;4.30;;
9860;SDS011;4969;52.304;4.968;2023-04-02T09:26:27;4.43;;;2.30;;
9860;SDS011;4969;52.304;4.968;2023-04-02T09:29:01;3.33;;;2.33;;
9860;SDS011;4969;52.304;4.968;2023-04-02T09:31:47;5.47;;;3.93;;
9860;SDS011;4969;52.304;4.968;2023-04-02T09:34:27;3.80;;;2.50;;
9860;SDS011;4969;52.304;4.968;2023-04-02T09:36:55;6.33;;;2.60;;
9860;SDS011;4969;52.304;4.968;2023-04-02T09:39:24;3.23;;;2.23;;
9860;SDS011;4969;52.304;4.968;2023-04-02T09:41:51;6.00;;;2.30;;
9860;SDS011;4969;52.304;4.968;2023-04-02T09:44:21;3.33;;;2.00;;
9860;SDS011;4969;52.304;4.968;2023-04-02T09:46:50;2.00;;;1.80;;
9860;SDS011;4969;52.304;4.968;2023-04-02T09:49:20;2.47;;;1.80;;
9860;SDS011;4969;52.304;4.968;2023-04-02T09:52:06;7.80;;;5.63;;
9860;SDS011;4969;52.304;4.968;2023-04-02T09:54:42;2.27;;;1.97;;
9860;SDS011;4969;52.304;4.968;2023-04-02T09:57:16;2.77;;;1.70;;
9860;SDS011;4969;52.304;4.968;2023-04-02T09:59:54;8.20;;;5.93;;
9860;SDS011;4969;52.304;4.968;2023-04-02T10:02:34;7.90;;;5.00;;
9860;SDS011;4969;52.304;4.968;2023-04-02T10:05:01;5.47;;;2.80;;
9860;SDS011;4969;52.304;4.968;2023-04-02T10:07:29;4.37;;;3.57;;
9860;SDS011;4969;52.304;4.968;2023-04-02T10:10:01;9.40;;;6.93;;
9860;SDS011;4969;52.304;4.968;2023-04-02T10:12:40;12.03;;;7.67;;
9860;SDS011;4969;52.304;4.968;2023-04-02T10:15:11;4.53;;;2.60;;
9860;SDS011;4969;52.304;4.968;2023-04-02T10:17:42;4.60;;;3.23;;
9860;SDS011;4969;52.304;4.968;2023-04-02T10:20:13;4.07;;;2.23;;
9860;SDS011;4969;52.304;4.968;2023-04-02T10:22:44;3.23;;;1.63;;
9860;SDS011;4969;52.304;4.968;2023-04-02T10:25:14;5.80;;;2.17;;
9860;SDS011;4969;52.304;4.968;2023-04-02T10:27:43;6.00;;;2.00;;
9860;SDS011;4969;52.304;4.968;2023-04-02T10:30:17;5.70;;;2.83;;
9860;SDS011;4969;52.304;4.968;2023-04-02T10:32:49;6.33;;;4.17;;
9860;SDS011;4969;52.304;4.968;2023-04-02T10:35:23;3.03;;;1.97;;
9860;SDS011;4969;52.304;4.968;2023-04-02T10:38:13;2.63;;;2.00;;
9860;SDS011;4969;52.304;4.968;2023-04-02T10:40:51;2.80;;;2.00;;
9860;SDS011;4969;52.304;4.968;2023-04-02T10:43:31;2.67;;;1.70;;
9860;SDS011;4969;52.304;4.968;2023-04-02T10:46:05;4.00;;;2.03;;
9860;SDS011;4969;52.304;4.968;2023-04-02T10:48:36;3.00;;;2.00;;
9860;SDS011;4969;52.304;4.968;2023-04-02T10:51:12;4.80;;;2.53;;
9860;SDS011;4969;52.304;4.968;2023-04-02T10:53:51;3.87;;;1.90;;
9860;SDS011;4969;52.304;4.968;2023-04-02T10:56:28;3.50;;;1.97;;
9860;SDS011;4969;52.304;4.968;2023-04-02T10:58:57;3.73;;;1.90;;
9860;SDS011;4969;52.304;4.968;2023-04-02T11:01:28;5.13;;;2.97;;
9860;SDS011;4969;52.304;4.968;2023-04-02T11:03:57;2.63;;;1.57;;
9860;SDS011;4969;52.304;4.968;2023-04-02T11:06:27;3.53;;;1.80;;
9860;SDS011;4969;52.304;4.968;2023-04-02T11:08:58;3.97;;;3.20;;
9860;SDS011;4969;52.304;4.968;2023-04-02T11:11:29;3.33;;;1.83;;
9860;SDS011;4969;52.304;4.968;2023-04-02T11:14:01;4.43;;;1.80;;
9860;SDS011;4969;52.304;4.968;2023-04-02T11:16:35;7.63;;;4.43;;
9860;SDS011;4969;52.304;4.968;2023-04-02T11:19:19;2.73;;;1.60;;
9860;SDS011;4969;52.304;4.968;2023-04-02T11:21:49;3.57;;;1.80;;
9860;SDS011;4969;52.304;4.968;2023-04-02T11:24:34;3.53;;;2.10;;
9860;SDS011;4969;52.304;4.968;2023-04-02T11:27:05;3.30;;;1.97;;
9860;SDS011;4969;52.304;4.968;2023-04-02T11:29:39;4.50;;;2.27;;
9860;SDS011;4969;52.304;4.968;2023-04-02T11:37:52;3.67;;;1.50;;
9860;SDS011;4969;52.304;4.968;2023-04-02T11:46:31;4.30;;;1.87;;
9860;SDS011;4969;52.304;4.968;2023-04-02T11:52:21;4.50;;;3.03;;
9860;SDS011;4969;52.304;4.968;2023-04-02T11:54:54;2.20;;;1.70;;
9860;SDS011;4969;52.304;4.968;2023-04-02T11:57:33;3.60;;;2.53;;
9860;SDS011;4969;52.304;4.968;2023-04-02T12:00:46;7.37;;;2.80;;
9860;SDS011;4969;52.304;4.968;2023-04-02T12:03:29;2.70;;;1.73;;
9860;SDS011;4969;52.304;4.968;2023-04-02T12:06:16;4.27;;;2.57;;
9860;SDS011;4969;52.304;4.968;2023-04-02T12:08:53;8.03;;;4.80;;
9860;SDS011;4969;52.304;4.968;2023-04-02T12:11:30;2.80;;;2.53;;
9860;SDS011;4969;52.304;4.968;2023-04-02T12:13:58;3.17;;;2.07;;
9860;SDS011;4969;52.304;4.968;2023-04-02T12:16:27;3.70;;;1.80;;
9860;SDS011;4969;52.304;4.968;2023-04-02T12:18:59;4.17;;;2.27;;
9860;SDS011;4969;52.304;4.968;2023-04-02T12:21:26;2.83;;;2.30;;
9860;SDS011;4969;52.304;4.968;2023-04-02T12:23:55;6.67;;;3.43;;
9860;SDS011;4969;52.304;4.968;2023-04-02T12:26:25;3.97;;;2.30;;
9860;SDS011;4969;52.304;4.968;2023-04-02T12:31:42;3.70;;;2.50;;
9860;SDS011;4969;52.304;4.968;2023-04-02T12:34:12;2.43;;;2.20;;
9860;SDS011;4969;52.304;4.968;2023-04-02T12:36:41;2.93;;;1.60;;
9860;SDS011;4969;52.304;4.968;2023-04-02T12:39:18;4.00;;;1.87;;
9860;SDS011;4969;52.304;4.968;2023-04-02T12:41:45;3.80;;;1.67;;
9860;SDS011;4969;52.304;4.968;2023-04-02T12:44:13;4.63;;;3.53;;
9860;SDS011;4969;52.304;4.968;2023-04-02T12:46:43;4.63;;;2.57;;
9860;SDS011;4969;52.304;4.968;2023-04-02T12:49:14;5.23;;;2.20;;
9860;SDS011;4969;52.304;4.968;2023-04-02T12:52:02;3.57;;;2.23;;
9860;SDS011;4969;52.304;4.968;2023-04-02T12:54:32;2.70;;;1.60;;
9860;SDS011;4969;52.304;4.968;2023-04-02T12:57:18;2.10;;;1.87;;
9860;SDS011;4969;52.304;4.968;2023-04-02T12:59:47;3.33;;;2.33;;
9860;SDS011;4969;52.304;4.968;2023-04-02T13:02:17;4.83;;;3.60;;
9860;SDS011;4969;52.304;4.968;2023-04-02T13:04:47;5.20;;;3.60;;
9860;SDS011;4969;52.304;4.968;2023-04-02T13:07:15;2.87;;;2.13;;
9860;SDS011;4969;52.304;4.968;2023-04-02T13:09:44;5.10;;;4.60;;
9860;SDS011;4969;52.304;4.968;2023-04-02T13:12:22;3.03;;;2.30;;
9860;SDS011;4969;52.304;4.968;2023-04-02T13:14:51;3.60;;;2.77;;
9860;SDS011;4969;52.304;4.968;2023-04-02T13:20:27;5.37;;;3.13;;
9860;SDS011;4969;52.304;4.968;2023-04-02T13:22:56;4.20;;;2.53;;
9860;SDS011;4969;52.304;4.968;2023-04-02T13:25:25;1.60;;;1.50;;
9860;SDS011;4969;52.304;4.968;2023-04-02T13:27:55;4.47;;;4.07;;
9860;SDS011;4969;52.304;4.968;2023-04-02T13:30:23;2.77;;;1.90;;
9860;SDS011;4969;52.304;4.968;2023-04-02T13:32:52;2.27;;;1.50;;
9860;SDS011;4969;52.304;4.968;2023-04-02T13:35:19;3.53;;;1.83;;
9860;SDS011;4969;52.304;4.968;2023-04-02T13:37:46;3.37;;;2.10;;
9860;SDS011;4969;52.304;4.968;2023-04-02T13:40:13;2.30;;;1.80;;
9860;SDS011;4969;52.304;4.968;2023-04-02T13:42:41;2.53;;;2.20;;
9860;SDS011;4969;52.304;4.968;2023-04-02T13:45:13;2.77;;;1.60;;
9860;SDS011;4969;52.304;4.968;2023-04-02T13:47:46;1.90;;;1.60;;
9860;SDS011;4969;52.304;4.968;2023-04-02T13:50:16;2.23;;;1.57;;
9860;SDS011;4969;52.304;4.968;2023-04-02T13:52:43;2.70;;;1.63;;
9860;SDS011;4969;52.304;4.968;2023-04-02T13:55:11;3.90;;;1.60;;
9860;SDS011;4969;52.304;4.968;2023-04-02T13:57:39;4.13;;;1.70;;
9860;SDS011;4969;52.304;4.968;2023-04-02T14:00:06;3.13;;;1.70;;
9860;SDS011;4969;52.304;4.968;2023-04-02T14:02:34;3.33;;;2.77;;
9860;SDS011;4969;52.304;4.968;2023-04-02T14:05:10;6.70;;;3.80;;
9860;SDS011;4969;52.304;4.968;2023-04-02T14:07:51;2.67;;;1.30;;
9860;SDS011;4969;52.304;4.968;2023-04-02T14:10:28;2.17;;;1.70;;
9860;SDS011;4969;52.304;4.968;2023-04-02T14:13:07;3.40;;;1.40;;
9860;SDS011;4969;52.304;4.968;2023-04-02T14:15:47;2.67;;;1.40;;
9860;SDS011;4969;52.304;4.968;2023-04-02T14:18:27;2.90;;;1.63;;
9860;SDS011;4969;52.304;4.968;2023-04-02T14:21:10;1.97;;;1.33;;
9860;SDS011;4969;52.304;4.968;2023-04-02T14:23:48;3.23;;;1.53;;
9860;SDS011;4969;52.304;4.968;2023-04-02T14:26:26;2.37;;;1.50;;
9860;SDS011;4969;52.304;4.968;2023-04-02T14:29:04;2.83;;;1.80;;
9860;SDS011;4969;52.304;4.968;2023-04-02T14:31:38;2.90;;;2.53;;
9860;SDS011;4969;52.304;4.968;2023-04-02T14:34:11;2.77;;;1.80;;
9860;SDS011;4969;52.304;4.968;2023-04-02T14:36:46;4.80;;;1.70;;
9860;SDS011;4969;52.304;4.968;2023-04-02T14:39:21;2.93;;;1.50;;
9860;SDS011;4969;52.304;4.968;2023-04-02T14:41:57;1.27;;;1.10;;
9860;SDS011;4969;52.304;4.968;2023-04-02T14:44:27;2.70;;;1.30;;
9860;SDS011;4969;52.304;4.968;2023-04-02T14:46:59;4.77;;;3.50;;
9860;SDS011;4969;52.304;4.968;2023-04-02T14:49:34;3.70;;;2.60;;
9860;SDS011;4969;52.304;4.968;2023-04-02T14:52:08;1.40;;;1.30;;
9860;SDS011;4969;52.304;4.968;2023-04-02T14:54:40;8.27;;;5.63;;
9860;SDS011;4969;52.304;4.968;2023-04-02T14:57:14;5.90;;;5.20;;
9860;SDS011;4969;52.304;4.968;2023-04-02T14:59:48;2.13;;;1.70;;
9860;SDS011;4969;52.304;4.968;2023-04-02T15:02:23;9.57;;;7.67;;
9860;SDS011;4969;52.304;4.968;2023-04-02T15:04:59;7.10;;;4.33;;
9860;SDS011;4969;52.304;4.968;2023-04-02T15:07:32;5.90;;;2.77;;
9860;SDS011;4969;52.304;4.968;2023-04-02T15:10:05;1.57;;;1.20;;
9860;SDS011;4969;52.304;4.968;2023-04-02T15:12:39;2.37;;;1.53;;
9860;SDS011;4969;52.304;4.968;2023-04-02T15:15:08;6.53;;;4.67;;
9860;SDS011;4969;52.304;4.968;2023-04-02T15:17:44;2.20;;;1.73;;
9860;SDS011;4969;52.304;4.968;2023-04-02T15:20:12;3.10;;;1.80;;
9860;SDS011;4969;52.304;4.968;2023-04-02T15:22:41;5.83;;;3.27;;
9860;SDS011;4969;52.304;4.968;2023-04-02T15:25:21;3.93;;;1.57;;
9860;SDS011;4969;52.304;4.968;2023-04-02T15:28:01;2.13;;;1.50;;
9860;SDS011;4969;52.304;4.968;2023-04-02T15:30:36;3.87;;;1.53;;
9860;SDS011;4969;52.304;4.968;2023-04-02T15:33:26;1.43;;;1.10;;
9860;SDS011;4969;52.304;4.968;2023-04-02T15:36:03;3.37;;;1.70;;
9860;SDS011;4969;52.304;4.968;2023-04-02T15:38:59;4.17;;;2.17;;
9860;SDS011;4969;52.304;4.968;2023-04-02T15:41:37;2.10;;;1.33;;
9860;SDS011;4969;52.304;4.968;2023-04-02T15:44:08;1.73;;;1.33;;
9860;SDS011;4969;52.304;4.968;2023-04-02T15:46:37;3.03;;;1.47;;
9860;SDS011;4969;52.304;4.968;2023-04-02T15:49:21;2.83;;;1.97;;
9860;SDS011;4969;52.304;4.968;2023-04-02T15:52:00;2.43;;;1.53;;
9860;SDS011;4969;52.304;4.968;2023-04-02T15:54:43;3.23;;;2.77;;
9860;SDS011;4969;52.304;4.968;2023-04-02T15:57:21;2.70;;;1.87;;
9860;SDS011;4969;52.304;4.968;2023-04-02T16:02:55;1.70;;;1.50;;
9860;SDS011;4969;52.304;4.968;2023-04-02T16:05:32;4.80;;;3.30;;
9860;SDS011;4969;52.304;4.968;2023-04-02T16:10:58;4.67;;;3.30;;
9860;SDS011;4969;52.304;4.968;2023-04-02T16:13:27;4.73;;;2.47;;